createdAt,value
2024-03-24T00:00:43.735Z,99918.89
2024-03-24T00:03:31.561Z,99912.73
2024-03-24T00:05:59.433Z,99914.79
2024-03-24T00:08:27.231Z,99911.15
2024-03-24T00:10:56.834Z,99909.48
2024-03-24T00:13:25.375Z,99908.45
2024-03-24T00:15:55.671Z,99899.95
2024-03-24T00:18:23.404Z,99895.20
2024-03-24T00:20:51.931Z,99891.55
2024-03-24T00:23:20.746Z,99887.36
2024-03-24T00:25:48.488Z,99890.89
2024-03-24T00:28:16.289Z,99886.39
2024-03-24T00:30:44.075Z,99885.27
2024-03-24T00:33:12.091Z,99881.09
2024-03-24T00:35:40.026Z,99879.36
2024-03-24T00:38:07.810Z,99883.41
2024-03-24T00:40:35.798Z,99885.49
2024-03-24T00:43:03.710Z,99887.55
2024-03-24T00:45:31.511Z,99888.54
2024-03-24T00:48:00.051Z,99887.10
2024-03-24T00:50:28.054Z,99889.48
2024-03-24T00:52:55.925Z,99887.16
2024-03-24T00:55:23.850Z,99883.16
2024-03-24T00:57:52.491Z,99886.30
2024-03-24T01:00:20.586Z,99883.54
2024-03-24T01:02:52.201Z,99883.92
2024-03-24T01:05:20.127Z,99879.70
2024-03-24T01:07:51.664Z,99879.46
2024-03-24T01:10:19.595Z,99875.23
2024-03-24T01:12:50.782Z,99870.71
2024-03-24T01:15:18.864Z,99866.27
2024-03-24T01:17:47.692Z,99857.85
2024-03-24T01:20:15.847Z,99857.04
2024-03-24T01:22:47.062Z,99855.83
2024-03-24T01:25:14.936Z,99858.44
2024-03-24T01:27:42.840Z,99854.17
2024-03-24T01:30:11.704Z,99852.45
2024-03-24T01:32:39.711Z,99848.39
2024-03-24T01:35:07.897Z,99849.29
2024-03-24T01:37:37.512Z,99845.70
2024-03-24T01:40:05.834Z,99845.98
2024-03-24T01:42:33.692Z,99849.38
2024-03-24T01:45:01.473Z,99848.13
2024-03-24T01:47:29.776Z,99844.30
2024-03-24T01:49:57.749Z,99847.28
2024-03-24T01:52:25.734Z,99844.84
2024-03-24T01:54:53.751Z,99842.33
2024-03-24T01:57:21.513Z,99839.95
2024-03-24T01:59:51.457Z,99835.72
2024-03-24T02:02:19.446Z,99833.05
2024-03-24T02:04:50.959Z,99832.50
2024-03-24T02:07:19.348Z,99834.40
2024-03-24T02:09:47.176Z,99833.58
2024-03-24T02:12:14.975Z,99834.00
2024-03-24T02:14:43.679Z,99831.38
2024-03-24T02:17:11.475Z,99829.00
2024-03-24T02:19:39.388Z,99834.98
2024-03-24T02:22:07.366Z,99832.78
2024-03-24T02:24:35.178Z,99833.30
2024-03-24T02:27:03.117Z,99829.37
2024-03-24T02:29:31.078Z,99826.27
2024-03-24T02:31:58.932Z,99828.39
2024-03-24T02:34:26.738Z,99825.95
2024-03-24T02:36:54.451Z,99823.59
2024-03-24T02:39:22.217Z,99823.11
2024-03-24T02:41:50.361Z,99822.86
2024-03-24T02:44:18.337Z,99820.20
2024-03-24T02:46:46.106Z,99818.95
2024-03-24T02:49:14.029Z,99812.87
2024-03-24T02:51:41.901Z,99813.48
2024-03-24T02:54:09.698Z,99815.06
2024-03-24T02:56:37.461Z,99814.12
2024-03-24T02:59:05.306Z,99817.13
2024-03-24T03:01:33.401Z,99815.05
2024-03-24T03:04:01.807Z,99817.45
2024-03-24T03:06:29.639Z,99809.18
2024-03-24T03:08:57.412Z,99810.39
2024-03-24T03:11:25.173Z,99806.45
2024-03-24T03:13:52.892Z,99807.71
2024-03-24T03:16:21.844Z,99809.20
2024-03-24T03:18:49.783Z,99805.95
2024-03-24T03:21:17.709Z,99804.02
2024-03-24T03:23:45.851Z,99804.39
2024-03-24T03:26:13.663Z,99802.21
2024-03-24T03:28:41.444Z,99804.23
2024-03-24T03:31:09.166Z,99802.30
2024-03-24T03:33:36.889Z,99806.52
2024-03-24T03:36:05.027Z,99806.82
2024-03-24T03:38:32.883Z,99808.45
2024-03-24T03:41:02.216Z,99807.40
2024-03-24T03:43:30.037Z,99808.39
2024-03-24T03:45:57.806Z,99805.99
2024-03-24T03:48:25.716Z,99810.19
2024-03-24T03:50:53.522Z,99805.13
2024-03-24T03:53:26.167Z,99807.92
2024-03-24T03:55:54.064Z,99805.85
2024-03-24T03:58:22.190Z,99808.38
2024-03-24T04:00:50.217Z,99806.75
2024-03-24T04:03:18.034Z,99810.34
2024-03-24T04:05:45.841Z,99813.00
2024-03-24T04:08:13.547Z,99810.31
2024-03-24T04:10:41.314Z,99806.55
2024-03-24T04:13:09.169Z,99813.04
2024-03-24T04:15:41.171Z,99813.94
2024-03-24T04:18:08.908Z,99813.62
2024-03-24T04:20:38.012Z,99813.91
2024-03-24T04:23:05.932Z,99811.29
2024-03-24T04:25:33.768Z,99810.55
2024-03-24T04:28:01.538Z,99810.92
2024-03-24T04:30:33.761Z,99812.81
2024-03-24T04:33:01.521Z,99810.24
2024-03-24T04:35:29.537Z,99813.86
2024-03-24T04:37:57.615Z,99813.38
2024-03-24T04:40:25.386Z,99813.21
2024-03-24T04:42:53.503Z,99817.70
2024-03-24T04:45:22.114Z,99817.61
2024-03-24T04:47:49.915Z,99820.23
2024-03-24T04:50:17.834Z,99818.56
2024-03-24T04:52:47.879Z,99824.23
2024-03-24T04:55:15.864Z,99823.29
2024-03-24T04:57:43.819Z,99823.88
2024-03-24T05:00:12.152Z,99820.55
2024-03-24T05:02:40.717Z,99823.00
2024-03-24T05:05:09.173Z,99823.78
2024-03-24T05:07:37.323Z,99822.77
2024-03-24T05:10:05.499Z,99820.09
2024-03-24T05:12:33.360Z,99822.09
2024-03-24T05:15:01.288Z,99822.59
2024-03-24T05:17:29.116Z,99817.86
2024-03-24T05:19:56.897Z,99813.34
2024-03-24T05:22:24.671Z,99815.55
2024-03-24T05:24:53.250Z,99812.22
2024-03-24T05:27:21.079Z,99806.22
2024-03-24T05:29:48.975Z,99801.30
2024-03-24T05:32:16.799Z,99803.47
2024-03-24T05:34:45.035Z,99805.38
2024-03-24T05:37:12.954Z,99807.30
2024-03-24T05:39:42.108Z,99811.81
2024-03-24T05:42:11.078Z,99809.19
2024-03-24T05:44:39.396Z,99810.27
2024-03-24T05:47:07.179Z,99812.74
2024-03-24T05:49:34.946Z,99821.91
2024-03-24T05:52:02.740Z,99817.29
2024-03-24T05:54:30.507Z,99814.20
2024-03-24T05:57:00.501Z,99814.78
2024-03-24T05:59:28.261Z,99816.61
2024-03-24T06:01:56.256Z,99820.77
2024-03-24T06:04:24.175Z,99820.97
2024-03-24T06:06:52.467Z,99817.38
2024-03-24T06:09:20.650Z,99816.29
2024-03-24T06:11:48.558Z,99818.70
2024-03-24T06:14:16.354Z,99813.91
2024-03-24T06:16:44.237Z,99815.05
2024-03-24T06:19:14.331Z,99816.77
2024-03-24T06:21:42.704Z,99815.59
2024-03-24T06:24:10.691Z,99815.42
2024-03-24T06:26:38.729Z,99818.94
2024-03-24T06:29:06.734Z,99822.38
2024-03-24T06:31:34.797Z,99820.45
2024-03-24T06:34:07.735Z,99818.00
2024-03-24T06:36:35.785Z,99820.45
2024-03-24T06:39:04.845Z,99822.45
2024-03-24T06:41:32.726Z,99823.38
2024-03-24T06:44:00.590Z,99821.92
2024-03-24T06:46:28.907Z,99821.89
2024-03-24T06:49:00.774Z,99820.83
2024-03-24T06:51:28.554Z,99821.52
2024-03-24T06:53:56.311Z,99820.01
2024-03-24T06:56:24.280Z,99822.58
2024-03-24T06:58:52.502Z,99820.73
2024-03-24T07:01:20.380Z,99816.47
2024-03-24T07:03:48.135Z,99821.57
2024-03-24T07:06:16.070Z,99821.70
2024-03-24T07:08:43.993Z,99822.66
2024-03-24T07:11:11.939Z,99821.06
2024-03-24T07:13:39.712Z,99822.96
2024-03-24T07:16:08.878Z,99826.77
2024-03-24T07:18:36.777Z,99824.85
2024-03-24T07:21:06.675Z,99828.19
2024-03-24T07:23:35.158Z,99821.66
2024-03-24T07:26:04.228Z,99824.13
2024-03-24T07:28:32.061Z,99823.23
2024-03-24T07:30:59.980Z,99821.86
2024-03-24T07:33:29.362Z,99821.26
2024-03-24T07:35:59.295Z,99819.23
2024-03-24T07:39:18.826Z,99821.50
2024-03-24T07:41:48.185Z,99818.69
2024-03-24T07:44:16.629Z,99811.83
2024-03-24T07:46:44.541Z,99807.80
2024-03-24T07:49:12.906Z,99804.05
2024-03-24T07:51:41.095Z,99799.48
2024-03-24T07:54:09.458Z,99797.73
2024-03-24T07:56:39.340Z,99794.98
2024-03-24T07:59:07.426Z,99789.82
2024-03-24T08:01:35.320Z,99788.27
2024-03-24T08:04:03.380Z,99787.23
2024-03-24T08:06:31.244Z,99790.00
2024-03-24T08:08:58.994Z,99782.17
2024-03-24T08:11:26.964Z,99790.17
2024-03-24T08:13:54.889Z,99792.59
2024-03-24T08:16:22.976Z,99794.13
2024-03-24T08:18:50.856Z,99793.39
2024-03-24T08:21:18.666Z,99799.90
2024-03-24T08:23:46.874Z,99802.08
2024-03-24T08:26:14.800Z,99803.67
2024-03-24T08:28:43.046Z,99805.38
2024-03-24T08:31:11.452Z,99805.94
2024-03-24T08:33:39.281Z,99812.25
2024-03-24T08:36:08.885Z,99814.73
2024-03-24T08:38:36.868Z,99814.14
2024-03-24T08:41:04.987Z,99816.65
2024-03-24T08:43:33.973Z,99826.48
2024-03-24T08:46:01.840Z,99819.55
2024-03-24T08:48:38.115Z,99819.68
2024-03-24T08:51:09.745Z,99818.93
2024-03-24T08:53:37.612Z,99824.17
2024-03-24T08:56:06.399Z,99822.16
2024-03-24T08:58:34.277Z,99822.13
2024-03-24T09:01:04.831Z,99825.23
2024-03-24T09:03:34.315Z,99824.03
2024-03-24T09:06:02.533Z,99823.27
2024-03-24T09:08:32.152Z,99825.20
2024-03-24T09:11:00.193Z,99827.39
2024-03-24T09:13:28.585Z,99829.86
2024-03-24T09:15:57.230Z,99830.57
2024-03-24T09:18:25.092Z,99829.38
2024-03-24T09:20:53.063Z,99829.13
2024-03-24T09:23:21.897Z,99826.70
2024-03-24T09:25:49.724Z,99827.27
2024-03-24T09:28:17.617Z,99826.16
2024-03-24T09:31:04.563Z,99820.54
2024-03-24T09:33:32.320Z,99822.40
2024-03-24T09:36:01.299Z,99818.86
2024-03-24T09:38:32.510Z,99817.73
2024-03-24T09:41:00.894Z,99816.81
2024-03-24T09:43:28.713Z,99810.98
2024-03-24T09:45:56.527Z,99805.98
2024-03-24T09:48:26.128Z,99806.77
2024-03-24T09:50:57.311Z,99805.31
2024-03-24T09:53:25.095Z,99805.07
2024-03-24T09:55:55.328Z,99802.02
2024-03-24T09:58:24.942Z,99800.84
2024-03-24T10:00:53.972Z,99798.98
2024-03-24T10:03:21.831Z,99798.83
2024-03-24T10:05:51.459Z,99799.69
2024-03-24T10:08:19.230Z,99795.14
2024-03-24T10:10:47.213Z,99794.52
2024-03-24T10:13:15.136Z,99791.70
2024-03-24T10:15:44.161Z,99785.63
2024-03-24T10:18:13.102Z,99791.10
2024-03-24T10:20:40.989Z,99783.16
2024-03-24T10:23:09.304Z,99787.17
2024-03-24T10:25:37.667Z,99785.55
2024-03-24T10:28:05.744Z,99783.67
2024-03-24T10:30:40.678Z,99780.23
2024-03-24T10:33:08.556Z,99779.69
2024-03-24T10:35:36.388Z,99786.89
2024-03-24T10:38:05.254Z,99780.80
2024-03-24T10:40:34.784Z,99778.27
2024-03-24T10:43:05.701Z,99773.98
2024-03-24T10:45:33.685Z,99768.25
2024-03-24T10:48:05.128Z,99765.63
2024-03-24T10:50:36.977Z,99764.15
2024-03-24T10:53:11.645Z,99763.69
2024-03-24T10:55:39.605Z,99759.31
2024-03-24T10:58:07.921Z,99763.11
2024-03-24T11:00:35.955Z,99759.39
2024-03-24T11:03:06.017Z,99753.52
2024-03-24T11:05:37.086Z,99747.77
2024-03-24T11:08:07.827Z,99744.17
2024-03-24T11:10:35.948Z,99738.48
2024-03-24T11:13:06.480Z,99735.55
2024-03-24T11:15:36.171Z,99737.25
2024-03-24T11:18:05.186Z,99734.92
2024-03-24T11:20:34.866Z,99731.27
2024-03-24T11:23:03.107Z,99729.89
2024-03-24T11:25:37.995Z,99729.98
2024-03-24T11:28:06.310Z,99728.15
2024-03-24T11:30:34.315Z,99730.77
2024-03-24T11:33:02.828Z,99735.09
2024-03-24T11:35:31.166Z,99727.20
2024-03-24T11:38:00.091Z,99728.75
2024-03-24T11:40:31.694Z,99732.19
2024-03-24T11:42:59.816Z,99720.60
2024-03-24T11:45:29.616Z,99718.67
2024-03-24T11:48:20.955Z,99715.93
2024-03-24T11:50:49.507Z,99718.68
2024-03-24T11:53:19.956Z,99719.77
2024-03-24T11:55:49.677Z,99718.98
2024-03-24T11:58:19.771Z,99709.95
2024-03-24T12:00:50.831Z,99709.98
2024-03-24T12:03:18.739Z,99708.14
2024-03-24T12:05:46.770Z,99706.98
2024-03-24T12:08:14.807Z,99706.77
2024-03-24T12:10:42.711Z,99700.15
2024-03-24T12:13:10.517Z,99695.76
2024-03-24T12:15:38.473Z,99697.66
2024-03-24T12:18:11.241Z,99702.63
2024-03-24T12:20:40.078Z,99699.94
2024-03-24T12:23:08.769Z,99693.34
2024-03-24T12:25:47.175Z,99694.10
2024-03-24T12:28:18.745Z,99689.17
2024-03-24T12:30:56.548Z,99684.63
2024-03-24T12:33:26.425Z,99689.80
2024-03-24T12:35:55.857Z,99686.39
2024-03-24T12:38:25.008Z,99683.77
2024-03-24T12:40:55.404Z,99677.63
2024-03-24T12:43:27.201Z,99662.36
2024-03-24T12:45:59.166Z,99658.88
2024-03-24T12:48:30.622Z,99662.05
2024-03-24T12:50:59.015Z,99660.69
2024-03-24T12:53:51.276Z,99661.04
2024-03-24T12:56:21.387Z,99654.45
2024-03-24T12:58:49.621Z,99658.87
2024-03-24T13:01:19.532Z,99653.04
2024-03-24T13:03:47.737Z,99653.84
2024-03-24T13:06:17.623Z,99652.73
2024-03-24T13:08:48.524Z,99649.30
2024-03-24T13:11:23.594Z,99653.08
2024-03-24T13:13:51.644Z,99655.86
2024-03-24T13:16:24.942Z,99653.95
2024-03-24T13:19:05.056Z,99654.48
2024-03-24T13:21:36.833Z,99658.81
2024-03-24T13:24:08.483Z,99663.33
2024-03-24T13:26:38.932Z,99658.23
2024-03-24T13:29:07.192Z,99668.20
2024-03-24T13:31:35.262Z,99672.34
2024-03-24T13:34:03.137Z,99675.65
2024-03-24T13:36:48.053Z,99673.05
2024-03-24T13:39:40.898Z,99670.58
2024-03-24T13:42:34.969Z,99665.85
2024-03-24T13:45:03.092Z,99673.31
2024-03-24T13:47:33.620Z,99676.58
2024-03-24T13:50:02.493Z,99679.58
2024-03-24T13:52:34.824Z,99677.58
2024-03-24T13:55:10.251Z,99679.39
2024-03-24T13:57:38.170Z,99680.11
2024-03-24T14:00:10.548Z,99675.73
2024-03-24T14:02:41.456Z,99673.78
2024-03-24T14:05:09.405Z,99671.20
2024-03-24T14:07:37.385Z,99669.23
2024-03-24T14:10:06.361Z,99663.80
2024-03-24T14:13:05.603Z,99658.86
2024-03-24T14:15:57.083Z,99661.77
2024-03-24T14:19:06.123Z,99657.66
2024-03-24T14:21:45.163Z,99651.19
2024-03-24T14:24:19.091Z,99650.95
2024-03-24T14:26:47.829Z,99644.89
2024-03-24T14:29:15.731Z,99639.20
2024-03-24T14:31:43.632Z,99640.36
2024-03-24T14:34:11.468Z,99635.54
2024-03-24T14:36:56.005Z,99628.45
2024-03-24T14:39:41.887Z,99622.13
2024-03-24T14:42:30.145Z,99619.45
2024-03-24T14:45:07.108Z,99616.13
2024-03-24T14:47:46.462Z,99610.86
2024-03-24T14:50:14.859Z,99610.67
2024-03-24T14:52:42.747Z,99611.20
2024-03-24T14:55:10.770Z,99605.10
2024-03-24T14:57:38.608Z,99604.40
2024-03-24T15:00:14.243Z,99607.72
2024-03-24T15:02:42.490Z,99605.02
2024-03-24T15:05:13.195Z,99597.27
2024-03-24T15:07:40.950Z,99599.25
2024-03-24T15:10:12.051Z,99597.39
2024-03-24T15:12:39.968Z,99595.39
2024-03-24T15:15:11.704Z,99594.04
2024-03-24T15:17:39.731Z,99595.16
2024-03-24T15:20:11.188Z,99589.16
2024-03-24T15:22:40.307Z,99589.32
2024-03-24T15:25:10.599Z,99590.16
2024-03-24T15:27:38.783Z,99591.56
2024-03-24T15:30:07.304Z,99591.36
2024-03-24T15:32:35.127Z,99589.09
2024-03-24T15:35:05.000Z,99592.17
2024-03-24T15:37:33.291Z,99583.23
2024-03-24T15:40:02.053Z,99583.89
2024-03-24T15:42:31.315Z,99586.19
2024-03-24T15:44:59.380Z,99587.56
2024-03-24T15:47:27.216Z,99588.39
2024-03-24T15:49:55.136Z,99589.52
2024-03-24T15:52:23.346Z,99587.05
2024-03-24T15:54:51.521Z,99587.61
2024-03-24T15:57:28.534Z,99586.00
2024-03-24T16:00:04.875Z,99585.41
2024-03-24T16:02:33.053Z,99580.98
2024-03-24T16:05:01.885Z,99580.94
2024-03-24T16:07:35.802Z,99583.04
2024-03-24T16:10:08.060Z,99579.66
2024-03-24T16:13:01.201Z,99578.40
2024-03-24T16:15:29.193Z,99579.97
2024-03-24T16:17:58.673Z,99581.65
2024-03-24T16:20:35.986Z,99581.08
2024-03-24T16:23:04.789Z,99581.98
2024-03-24T16:25:32.773Z,99584.23
2024-03-24T16:28:00.633Z,99579.43
2024-03-24T16:30:32.106Z,99583.37
2024-03-24T16:33:00.957Z,99583.48
2024-03-24T16:35:32.080Z,99583.17
2024-03-24T16:38:00.431Z,99587.48
2024-03-24T16:40:28.334Z,99586.46
2024-03-24T16:42:56.322Z,99587.89
2024-03-24T16:45:24.369Z,99585.98
2024-03-24T16:47:52.770Z,99585.63
2024-03-24T16:50:20.990Z,99586.12
2024-03-24T16:52:49.567Z,99584.42
2024-03-24T16:55:17.533Z,99583.81
2024-03-24T16:57:47.059Z,99588.56
2024-03-24T17:00:15.147Z,99589.05
2024-03-24T17:02:42.983Z,99595.27
2024-03-24T17:05:10.901Z,99590.38
2024-03-24T17:07:38.694Z,99592.72
2024-03-24T17:10:11.224Z,99597.88
2024-03-24T17:12:39.635Z,99601.45
2024-03-24T17:15:13.668Z,99603.89
2024-03-24T17:17:41.632Z,99607.67
2024-03-24T17:20:09.956Z,99610.92
2024-03-24T17:22:37.964Z,99608.95
2024-03-24T17:25:08.327Z,99610.36
2024-03-24T17:27:36.212Z,99612.97
2024-03-24T17:30:04.663Z,99617.31
2024-03-24T17:32:32.963Z,99615.04
2024-03-24T17:35:00.837Z,99617.58
2024-03-24T17:37:28.805Z,99619.80
2024-03-24T17:39:56.631Z,99617.92
2024-03-24T17:42:24.407Z,99620.70
2024-03-24T17:44:52.258Z,99622.73
2024-03-24T17:47:22.820Z,99620.55
2024-03-24T17:49:50.771Z,99622.55
2024-03-24T17:52:19.584Z,99621.79
2024-03-24T17:54:47.445Z,99625.79
2024-03-24T17:57:15.264Z,99625.98
2024-03-24T17:59:43.184Z,99630.23
2024-03-24T18:02:13.195Z,99626.64
2024-03-24T18:04:41.854Z,99627.27
2024-03-24T18:07:28.506Z,99626.71
2024-03-24T18:10:20.259Z,99625.93
2024-03-24T18:12:50.382Z,99625.23
2024-03-24T18:15:21.023Z,99625.21
2024-03-24T18:17:49.015Z,99627.34
2024-03-24T18:20:17.129Z,99628.10
2024-03-24T18:22:48.309Z,99627.24
2024-03-24T18:25:18.518Z,99626.25
2024-03-24T18:27:46.493Z,99623.39
2024-03-24T18:30:14.691Z,99621.04
2024-03-24T18:32:43.113Z,99624.38
2024-03-24T18:35:11.057Z,99626.02
2024-03-24T18:37:48.758Z,99623.72
2024-03-24T18:40:16.873Z,99625.21
2024-03-24T18:42:44.930Z,99622.09
2024-03-24T18:45:12.846Z,99621.68
2024-03-24T18:47:40.924Z,99621.23
2024-03-24T18:50:09.446Z,99621.15
2024-03-24T18:52:38.324Z,99620.36
2024-03-24T18:55:08.754Z,99620.24
2024-03-24T18:57:37.729Z,99620.42
2024-03-24T19:00:06.346Z,99623.48
2024-03-24T19:02:34.406Z,99621.26
2024-03-24T19:05:06.572Z,99621.63
2024-03-24T19:07:34.820Z,99620.32
2024-03-24T19:10:02.819Z,99616.98
2024-03-24T19:12:30.800Z,99618.48
2024-03-24T19:14:58.765Z,99614.58
2024-03-24T19:17:26.622Z,99611.54
2024-03-24T19:19:54.599Z,99610.02
2024-03-24T19:22:23.428Z,99607.75
2024-03-24T19:24:51.292Z,99607.58
2024-03-24T19:27:19.111Z,99607.14
2024-03-24T19:29:46.920Z,99606.16
2024-03-24T19:32:14.794Z,99605.55
2024-03-24T19:34:43.878Z,99601.75
2024-03-24T19:37:11.791Z,99605.84
2024-03-24T19:39:39.775Z,99602.14
2024-03-24T19:42:07.753Z,99602.85
2024-03-24T19:44:35.648Z,99600.60
2024-03-24T19:47:03.879Z,99604.00
2024-03-24T19:49:34.177Z,99602.82
2024-03-24T19:52:02.481Z,99602.63
2024-03-24T19:54:31.831Z,99603.63
2024-03-24T19:56:59.947Z,99604.91
2024-03-24T19:59:27.892Z,99601.98
2024-03-24T20:01:55.872Z,99596.58
2024-03-24T20:04:24.167Z,99596.02
2024-03-24T20:06:52.080Z,99593.95
2024-03-24T20:09:20.053Z,99596.61
2024-03-24T20:11:48.013Z,99595.84
2024-03-24T20:14:16.069Z,99592.24
2024-03-24T20:16:44.199Z,99595.27
2024-03-24T20:19:12.018Z,99593.02
2024-03-24T20:21:39.974Z,99593.55
2024-03-24T20:24:07.984Z,99594.54
2024-03-24T20:26:35.893Z,99593.44
2024-03-24T20:29:06.678Z,99591.73
2024-03-24T20:31:34.693Z,99589.79
2024-03-24T20:34:02.465Z,99585.02
2024-03-24T20:36:30.400Z,99585.98
2024-03-24T20:38:58.306Z,99590.18
2024-03-24T20:41:28.162Z,99588.53
2024-03-24T20:43:56.033Z,99586.53
2024-03-24T20:46:23.850Z,99588.20
2024-03-24T20:48:54.656Z,99586.94
2024-03-24T20:51:23.621Z,99583.88
2024-03-24T20:53:51.572Z,99586.73
2024-03-24T20:56:20.303Z,99586.84
2024-03-24T20:58:48.244Z,99582.71
2024-03-24T21:01:16.340Z,99587.65
2024-03-24T21:03:45.034Z,99585.29
2024-03-24T21:06:12.998Z,99582.80
2024-03-24T21:08:40.759Z,99585.73
2024-03-24T21:11:09.350Z,99585.73
2024-03-24T21:13:38.066Z,99585.86
2024-03-24T21:16:06.411Z,99584.31
2024-03-24T21:18:34.886Z,99582.41
2024-03-24T21:21:03.086Z,99581.27
2024-03-24T21:23:31.154Z,99578.58
2024-03-24T21:25:59.030Z,99577.84
2024-03-24T21:28:26.951Z,99576.99
2024-03-24T21:30:54.941Z,99575.36
2024-03-24T21:33:22.832Z,99573.77
2024-03-24T21:35:50.835Z,99569.90
2024-03-24T21:38:37.588Z,99570.85
2024-03-24T21:41:24.639Z,99568.15
2024-03-24T21:43:52.692Z,99564.39
2024-03-24T21:46:20.560Z,99562.02
2024-03-24T21:48:48.348Z,99559.95
2024-03-24T21:51:16.364Z,99556.33
2024-03-24T21:53:44.164Z,99552.42
2024-03-24T21:56:12.024Z,99551.25
2024-03-24T21:58:40.329Z,99553.90
2024-03-24T22:01:09.480Z,99554.77
2024-03-24T22:03:37.561Z,99548.80
2024-03-24T22:06:06.502Z,99547.20
2024-03-24T22:08:39.433Z,99547.58
2024-03-24T22:11:07.667Z,99544.34
2024-03-24T22:13:35.494Z,99545.44
2024-03-24T22:16:03.964Z,99537.98
2024-03-24T22:18:31.751Z,99535.73
2024-03-24T22:20:59.600Z,99534.80
2024-03-24T22:23:27.405Z,99529.23
2024-03-24T22:25:55.262Z,99525.06
2024-03-24T22:28:23.091Z,99528.36
2024-03-24T22:30:51.125Z,99527.48
2024-03-24T22:33:19.071Z,99525.09
2024-03-24T22:35:46.876Z,99522.40
2024-03-24T22:38:16.228Z,99520.73
2024-03-24T22:40:45.362Z,99519.46
2024-03-24T22:43:14.633Z,99519.83
2024-03-24T22:45:43.079Z,99521.42
2024-03-24T22:48:11.186Z,99519.86
2024-03-24T22:50:39.868Z,99521.02
2024-03-24T22:53:08.318Z,99517.91
2024-03-24T22:55:36.448Z,99517.01
2024-03-24T22:58:05.062Z,99517.63
2024-03-24T23:00:34.522Z,99516.20
2024-03-24T23:03:02.377Z,99516.34
2024-03-24T23:05:30.500Z,99515.73
2024-03-24T23:07:58.314Z,99514.02
2024-03-24T23:10:26.128Z,99513.12
2024-03-24T23:12:53.955Z,99511.65
2024-03-24T23:15:22.032Z,99512.06
2024-03-24T23:17:50.088Z,99514.45
2024-03-24T23:20:17.890Z,99512.89
2024-03-24T23:22:45.617Z,99510.41
2024-03-24T23:25:13.504Z,99509.74
2024-03-24T23:27:41.403Z,99506.61
2024-03-24T23:30:10.010Z,99504.69
2024-03-24T23:32:37.861Z,99507.39
2024-03-24T23:35:09.969Z,99509.33
2024-03-24T23:37:38.818Z,99511.39
2024-03-24T23:40:07.447Z,99512.67
2024-03-24T23:42:35.243Z,99508.98
2024-03-24T23:45:03.122Z,99504.52
2024-03-24T23:47:34.214Z,99504.31
2024-03-24T23:50:02.929Z,99505.10
2024-03-24T23:52:31.862Z,99498.26
2024-03-24T23:54:59.721Z,99490.44
2024-03-24T23:57:27.623Z,99495.80
2024-03-24T23:59:55.558Z,99502.50
